sensor_id;sensor_type;location;lat;lon;timestamp;temperature;humidity
33865;DHT22;20159;51.072;13.526;2023-02-15T00:01:23;1.70;94.60
33865;DHT22;20159;51.072;13.526;2023-02-15T00:03:49;1.70;94.60
33865;DHT22;20159;51.072;13.526;2023-02-15T00:06:15;1.70;94.40
33865;DHT22;20159;51.072;13.526;2023-02-15T00:08:41;1.70;94.40
33865;DHT22;20159;51.072;13.526;2023-02-15T00:11:11;1.60;94.30
33865;DHT22;20159;51.072;13.526;2023-02-15T00:13:37;1.60;94.30
33865;DHT22;20159;51.072;13.526;2023-02-15T00:16:06;1.60;94.40
33865;DHT22;20159;51.072;13.526;2023-02-15T00:18:32;1.60;94.50
33865;DHT22;20159;51.072;13.526;2023-02-15T00:20:59;1.60;94.50
33865;DHT22;20159;51.072;13.526;2023-02-15T00:23:28;1.50;94.60
33865;DHT22;20159;51.072;13.526;2023-02-15T00:26:04;4.30;95.40
33865;DHT22;20159;51.072;13.526;2023-02-15T00:28:30;1.50;94.70
33865;DHT22;20159;51.072;13.526;2023-02-15T00:31:05;1.50;94.60
33865;DHT22;20159;51.072;13.526;2023-02-15T00:33:31;1.50;94.60
33865;DHT22;20159;51.072;13.526;2023-02-15T00:35:58;1.40;94.60
33865;DHT22;20159;51.072;13.526;2023-02-15T00:38:24;1.40;94.70
33865;DHT22;20159;51.072;13.526;2023-02-15T00:40:54;1.40;94.80
33865;DHT22;20159;51.072;13.526;2023-02-15T00:43:19;1.40;94.80
33865;DHT22;20159;51.072;13.526;2023-02-15T00:45:46;1.40;94.90
33865;DHT22;20159;51.072;13.526;2023-02-15T00:48:11;1.40;94.90
33865;DHT22;20159;51.072;13.526;2023-02-15T00:50:37;1.40;95.00
33865;DHT22;20159;51.072;13.526;2023-02-15T00:53:02;1.40;95.00
33865;DHT22;20159;51.072;13.526;2023-02-15T00:55:28;1.40;95.10
33865;DHT22;20159;51.072;13.526;2023-02-15T00:57:53;1.40;95.10
33865;DHT22;20159;51.072;13.526;2023-02-15T01:00:19;1.50;95.20
33865;DHT22;20159;51.072;13.526;2023-02-15T01:02:44;3.70;95.70
33865;DHT22;20159;51.072;13.526;2023-02-15T01:05:10;1.50;95.10
33865;DHT22;20159;51.072;13.526;2023-02-15T01:07:35;1.50;95.10
33865;DHT22;20159;51.072;13.526;2023-02-15T01:10:01;1.50;95.00
33865;DHT22;20159;51.072;13.526;2023-02-15T01:12:26;1.50;95.00
33865;DHT22;20159;51.072;13.526;2023-02-15T01:14:52;1.50;94.90
33865;DHT22;20159;51.072;13.526;2023-02-15T01:17:17;1.50;94.70
33865;DHT22;20159;51.072;13.526;2023-02-15T01:19:43;3.40;95.00
33865;DHT22;20159;51.072;13.526;2023-02-15T01:22:08;1.40;94.30
33865;DHT22;20159;51.072;13.526;2023-02-15T01:24:34;1.40;94.00
33865;DHT22;20159;51.072;13.526;2023-02-15T01:26:59;1.40;93.90
33865;DHT22;20159;51.072;13.526;2023-02-15T01:29:25;1.30;93.90
33865;DHT22;20159;51.072;13.526;2023-02-15T01:31:50;1.30;93.90
33865;DHT22;20159;51.072;13.526;2023-02-15T01:34:16;1.20;94.00
33865;DHT22;20159;51.072;13.526;2023-02-15T01:36:42;1.20;94.20
33865;DHT22;20159;51.072;13.526;2023-02-15T01:39:07;1.10;94.40
33865;DHT22;20159;51.072;13.526;2023-02-15T01:41:33;1.10;94.60
33865;DHT22;20159;51.072;13.526;2023-02-15T01:44:00;1.10;94.70
33865;DHT22;20159;51.072;13.526;2023-02-15T01:46:35;1.10;94.70
33865;DHT22;20159;51.072;13.526;2023-02-15T01:49:15;1.10;94.80
33865;DHT22;20159;51.072;13.526;2023-02-15T01:51:44;4.40;95.60
33865;DHT22;20159;51.072;13.526;2023-02-15T01:54:31;1.10;94.80
33865;DHT22;20159;51.072;13.526;2023-02-15T01:57:06;1.10;95.00
33865;DHT22;20159;51.072;13.526;2023-02-15T01:59:33;1.10;94.90
33865;DHT22;20159;51.072;13.526;2023-02-15T02:02:01;1.10;94.90
33865;DHT22;20159;51.072;13.526;2023-02-15T02:04:38;1.10;94.80
33865;DHT22;20159;51.072;13.526;2023-02-15T02:07:05;1.10;94.70
33865;DHT22;20159;51.072;13.526;2023-02-15T02:09:32;1.10;94.60
33865;DHT22;20159;51.072;13.526;2023-02-15T02:11:58;1.10;94.60
33865;DHT22;20159;51.072;13.526;2023-02-15T02:14:24;1.10;94.60
33865;DHT22;20159;51.072;13.526;2023-02-15T02:17:12;1.10;94.60
33865;DHT22;20159;51.072;13.526;2023-02-15T02:20:05;1.10;94.60
33865;DHT22;20159;51.072;13.526;2023-02-15T02:31:06;1.00;94.50
33865;DHT22;20159;51.072;13.526;2023-02-15T02:36:49;0.90;94.30
33865;DHT22;20159;51.072;13.526;2023-02-15T02:42:31;0.90;94.50
33865;DHT22;20159;51.072;13.526;2023-02-15T02:45:03;0.90;94.80
33865;DHT22;20159;51.072;13.526;2023-02-15T02:47:44;0.90;94.60
33865;DHT22;20159;51.072;13.526;2023-02-15T02:50:17;0.90;94.70
33865;DHT22;20159;51.072;13.526;2023-02-15T02:52:47;0.90;94.80
33865;DHT22;20159;51.072;13.526;2023-02-15T02:55:21;0.90;94.80
33865;DHT22;20159;51.072;13.526;2023-02-15T03:00:23;0.90;94.70
33865;DHT22;20159;51.072;13.526;2023-02-15T03:02:54;0.90;94.60
33865;DHT22;20159;51.072;13.526;2023-02-15T03:05:27;0.90;94.60
33865;DHT22;20159;51.072;13.526;2023-02-15T03:07:54;0.90;94.60
33865;DHT22;20159;51.072;13.526;2023-02-15T03:10:23;0.90;94.60
33865;DHT22;20159;51.072;13.526;2023-02-15T03:12:49;0.90;94.50
33865;DHT22;20159;51.072;13.526;2023-02-15T03:15:16;0.90;94.40
33865;DHT22;20159;51.072;13.526;2023-02-15T03:17:47;0.90;94.50
33865;DHT22;20159;51.072;13.526;2023-02-15T03:20:20;0.90;94.50
33865;DHT22;20159;51.072;13.526;2023-02-15T03:23:03;0.90;94.60
33865;DHT22;20159;51.072;13.526;2023-02-15T03:25:35;0.80;94.60
33865;DHT22;20159;51.072;13.526;2023-02-15T03:28:09;3.60;95.20
33865;DHT22;20159;51.072;13.526;2023-02-15T03:30:37;0.80;94.50
33865;DHT22;20159;51.072;13.526;2023-02-15T03:33:06;0.80;94.50
33865;DHT22;20159;51.072;13.526;2023-02-15T03:35:42;0.80;94.50
33865;DHT22;20159;51.072;13.526;2023-02-15T03:38:13;0.80;94.40
33865;DHT22;20159;51.072;13.526;2023-02-15T03:40:43;0.80;94.40
33865;DHT22;20159;51.072;13.526;2023-02-15T03:45:57;0.80;94.50
33865;DHT22;20159;51.072;13.526;2023-02-15T03:48:36;0.70;94.10
33865;DHT22;20159;51.072;13.526;2023-02-15T03:51:07;0.70;93.90
33865;DHT22;20159;51.072;13.526;2023-02-15T03:53:54;0.70;93.90
33865;DHT22;20159;51.072;13.526;2023-02-15T03:56:20;0.60;94.00
33865;DHT22;20159;51.072;13.526;2023-02-15T03:58:46;0.60;93.90
33865;DHT22;20159;51.072;13.526;2023-02-15T04:04:35;0.60;94.00
33865;DHT22;20159;51.072;13.526;2023-02-15T04:07:02;0.50;94.10
33865;DHT22;20159;51.072;13.526;2023-02-15T04:09:27;0.50;94.10
33865;DHT22;20159;51.072;13.526;2023-02-15T04:12:11;0.50;94.20
33865;DHT22;20159;51.072;13.526;2023-02-15T04:14:37;0.40;94.30
33865;DHT22;20159;51.072;13.526;2023-02-15T04:17:21;0.40;94.30
33865;DHT22;20159;51.072;13.526;2023-02-15T04:19:47;0.40;94.30
33865;DHT22;20159;51.072;13.526;2023-02-15T04:22:31;0.50;94.40
33865;DHT22;20159;51.072;13.526;2023-02-15T04:25:15;0.40;94.50
33865;DHT22;20159;51.072;13.526;2023-02-15T04:27:43;0.50;94.70
33865;DHT22;20159;51.072;13.526;2023-02-15T04:30:11;0.50;94.70
33865;DHT22;20159;51.072;13.526;2023-02-15T04:32:37;0.50;94.80
33865;DHT22;20159;51.072;13.526;2023-02-15T04:35:02;0.50;94.80
33865;DHT22;20159;51.072;13.526;2023-02-15T04:37:28;0.50;94.90
33865;DHT22;20159;51.072;13.526;2023-02-15T04:39:54;0.50;94.90
33865;DHT22;20159;51.072;13.526;2023-02-15T04:42:19;0.60;94.80
33865;DHT22;20159;51.072;13.526;2023-02-15T04:44:45;0.50;94.80
33865;DHT22;20159;51.072;13.526;2023-02-15T04:47:10;0.60;94.80
33865;DHT22;20159;51.072;13.526;2023-02-15T04:49:36;0.60;94.80
33865;DHT22;20159;51.072;13.526;2023-02-15T04:52:01;0.60;94.80
33865;DHT22;20159;51.072;13.526;2023-02-15T04:54:27;0.60;94.70
33865;DHT22;20159;51.072;13.526;2023-02-15T04:56:52;0.70;94.60
33865;DHT22;20159;51.072;13.526;2023-02-15T04:59:18;0.60;94.50
33865;DHT22;20159;51.072;13.526;2023-02-15T05:01:43;1.80;94.80
33865;DHT22;20159;51.072;13.526;2023-02-15T05:04:09;0.60;94.40
33865;DHT22;20159;51.072;13.526;2023-02-15T05:06:34;0.60;94.30
33865;DHT22;20159;51.072;13.526;2023-02-15T05:09:00;0.70;94.30
33865;DHT22;20159;51.072;13.526;2023-02-15T05:11:26;0.60;94.30
33865;DHT22;20159;51.072;13.526;2023-02-15T05:13:51;0.60;94.40
33865;DHT22;20159;51.072;13.526;2023-02-15T05:16:17;0.60;94.60
33865;DHT22;20159;51.072;13.526;2023-02-15T05:18:42;0.70;94.70
33865;DHT22;20159;51.072;13.526;2023-02-15T05:21:08;0.70;94.80
33865;DHT22;20159;51.072;13.526;2023-02-15T05:23:34;0.70;94.70
33865;DHT22;20159;51.072;13.526;2023-02-15T05:25:59;0.70;94.70
33865;DHT22;20159;51.072;13.526;2023-02-15T05:28:43;0.70;94.60
33865;DHT22;20159;51.072;13.526;2023-02-15T05:31:12;0.70;94.50
33865;DHT22;20159;51.072;13.526;2023-02-15T05:33:38;0.70;94.40
33865;DHT22;20159;51.072;13.526;2023-02-15T05:36:04;0.70;94.30
33865;DHT22;20159;51.072;13.526;2023-02-15T05:38:30;0.70;94.20
33865;DHT22;20159;51.072;13.526;2023-02-15T05:40:55;0.70;94.10
33865;DHT22;20159;51.072;13.526;2023-02-15T05:43:21;0.70;94.10
33865;DHT22;20159;51.072;13.526;2023-02-15T05:45:51;0.70;94.10
33865;DHT22;20159;51.072;13.526;2023-02-15T05:48:17;0.60;94.10
33865;DHT22;20159;51.072;13.526;2023-02-15T05:50:43;0.60;94.10
33865;DHT22;20159;51.072;13.526;2023-02-15T05:53:09;0.60;94.20
33865;DHT22;20159;51.072;13.526;2023-02-15T05:55:38;0.60;94.30
33865;DHT22;20159;51.072;13.526;2023-02-15T05:58:04;1.40;94.60
33865;DHT22;20159;51.072;13.526;2023-02-15T06:00:30;0.60;94.50
33865;DHT22;20159;51.072;13.526;2023-02-15T06:02:55;0.60;94.50
33865;DHT22;20159;51.072;13.526;2023-02-15T06:05:21;0.60;94.50
33865;DHT22;20159;51.072;13.526;2023-02-15T06:07:46;0.60;94.40
33865;DHT22;20159;51.072;13.526;2023-02-15T06:10:12;0.60;94.40
33865;DHT22;20159;51.072;13.526;2023-02-15T06:12:37;0.60;94.20
33865;DHT22;20159;51.072;13.526;2023-02-15T06:15:03;0.60;94.20
33865;DHT22;20159;51.072;13.526;2023-02-15T06:17:29;0.60;94.30
33865;DHT22;20159;51.072;13.526;2023-02-15T06:19:55;0.60;94.40
33865;DHT22;20159;51.072;13.526;2023-02-15T06:22:20;0.60;94.60
33865;DHT22;20159;51.072;13.526;2023-02-15T06:24:46;0.60;94.70
33865;DHT22;20159;51.072;13.526;2023-02-15T06:27:12;0.60;94.80
33865;DHT22;20159;51.072;13.526;2023-02-15T06:29:37;0.70;94.90
33865;DHT22;20159;51.072;13.526;2023-02-15T06:32:03;0.80;95.00
33865;DHT22;20159;51.072;13.526;2023-02-15T06:34:29;0.80;95.00
33865;DHT22;20159;51.072;13.526;2023-02-15T06:36:55;0.90;94.90
33865;DHT22;20159;51.072;13.526;2023-02-15T06:39:20;0.90;95.10
33865;DHT22;20159;51.072;13.526;2023-02-15T06:41:46;3.20;95.50
33865;DHT22;20159;51.072;13.526;2023-02-15T06:44:11;1.10;94.90
33865;DHT22;20159;51.072;13.526;2023-02-15T06:46:37;1.20;94.90
33865;DHT22;20159;51.072;13.526;2023-02-15T06:49:02;1.10;94.80
33865;DHT22;20159;51.072;13.526;2023-02-15T06:51:28;1.20;94.80
33865;DHT22;20159;51.072;13.526;2023-02-15T06:53:53;1.30;94.80
33865;DHT22;20159;51.072;13.526;2023-02-15T06:56:19;1.30;94.80
33865;DHT22;20159;51.072;13.526;2023-02-15T06:58:44;1.40;94.70
33865;DHT22;20159;51.072;13.526;2023-02-15T07:01:15;1.50;94.70
33865;DHT22;20159;51.072;13.526;2023-02-15T07:03:40;1.50;94.60
33865;DHT22;20159;51.072;13.526;2023-02-15T07:06:06;1.60;94.60
33865;DHT22;20159;51.072;13.526;2023-02-15T07:08:34;1.60;94.60
33865;DHT22;20159;51.072;13.526;2023-02-15T07:11:00;4.30;95.20
33865;DHT22;20159;51.072;13.526;2023-02-15T07:13:44;1.80;94.60
33865;DHT22;20159;51.072;13.526;2023-02-15T07:16:09;1.90;94.80
33865;DHT22;20159;51.072;13.526;2023-02-15T07:18:36;2.00;95.50
33865;DHT22;20159;51.072;13.526;2023-02-15T07:21:02;2.20;96.10
33865;DHT22;20159;51.072;13.526;2023-02-15T07:23:28;2.60;96.50
33865;DHT22;20159;51.072;13.526;2023-02-15T07:26:00;2.90;96.70
33865;DHT22;20159;51.072;13.526;2023-02-15T07:28:27;3.40;96.50
33865;DHT22;20159;51.072;13.526;2023-02-15T07:30:52;3.90;96.50
33865;DHT22;20159;51.072;13.526;2023-02-15T07:33:18;4.40;96.30
33865;DHT22;20159;51.072;13.526;2023-02-15T07:35:49;4.90;96.10
33865;DHT22;20159;51.072;13.526;2023-02-15T07:38:16;5.50;95.70
33865;DHT22;20159;51.072;13.526;2023-02-15T07:40:42;6.00;94.90
33865;DHT22;20159;51.072;13.526;2023-02-15T07:43:07;6.50;94.50
33865;DHT22;20159;51.072;13.526;2023-02-15T07:45:33;7.00;94.20
33865;DHT22;20159;51.072;13.526;2023-02-15T07:48:00;7.50;93.30
33865;DHT22;20159;51.072;13.526;2023-02-15T07:50:26;8.00;92.60
33865;DHT22;20159;51.072;13.526;2023-02-15T07:52:51;8.50;93.20
33865;DHT22;20159;51.072;13.526;2023-02-15T07:55:17;8.90;92.00
33865;DHT22;20159;51.072;13.526;2023-02-15T07:57:45;9.40;91.30
33865;DHT22;20159;51.072;13.526;2023-02-15T08:00:12;9.80;90.00
33865;DHT22;20159;51.072;13.526;2023-02-15T08:02:38;10.10;87.30
33865;DHT22;20159;51.072;13.526;2023-02-15T08:05:04;10.50;86.80
33865;DHT22;20159;51.072;13.526;2023-02-15T08:07:30;10.90;86.90
33865;DHT22;20159;51.072;13.526;2023-02-15T08:09:55;11.20;85.10
33865;DHT22;20159;51.072;13.526;2023-02-15T08:12:21;11.50;84.40
33865;DHT22;20159;51.072;13.526;2023-02-15T08:14:46;11.80;84.10
33865;DHT22;20159;51.072;13.526;2023-02-15T08:17:12;12.10;82.70
33865;DHT22;20159;51.072;13.526;2023-02-15T08:19:37;12.40;82.40
33865;DHT22;20159;51.072;13.526;2023-02-15T08:22:05;12.70;82.30
33865;DHT22;20159;51.072;13.526;2023-02-15T08:24:36;13.00;81.30
33865;DHT22;20159;51.072;13.526;2023-02-15T08:27:02;13.30;77.90
33865;DHT22;20159;51.072;13.526;2023-02-15T08:29:30;13.50;80.00
33865;DHT22;20159;51.072;13.526;2023-02-15T08:31:58;13.90;79.30
33865;DHT22;20159;51.072;13.526;2023-02-15T08:34:27;14.20;77.20
33865;DHT22;20159;51.072;13.526;2023-02-15T08:36:53;14.50;77.70
33865;DHT22;20159;51.072;13.526;2023-02-15T08:39:19;14.80;76.30
33865;DHT22;20159;51.072;13.526;2023-02-15T08:41:46;15.10;74.40
33865;DHT22;20159;51.072;13.526;2023-02-15T08:44:13;15.30;72.30
33865;DHT22;20159;51.072;13.526;2023-02-15T08:46:42;15.50;71.40
33865;DHT22;20159;51.072;13.526;2023-02-15T08:49:08;15.80;72.80
33865;DHT22;20159;51.072;13.526;2023-02-15T08:51:35;16.00;71.40
33865;DHT22;20159;51.072;13.526;2023-02-15T08:54:06;16.20;69.40
33865;DHT22;20159;51.072;13.526;2023-02-15T08:56:35;16.50;66.10
33865;DHT22;20159;51.072;13.526;2023-02-15T08:59:01;16.70;67.90
33865;DHT22;20159;51.072;13.526;2023-02-15T09:01:29;16.90;67.20
33865;DHT22;20159;51.072;13.526;2023-02-15T09:03:57;17.00;66.60
33865;DHT22;20159;51.072;13.526;2023-02-15T09:06:23;17.20;65.00
33865;DHT22;20159;51.072;13.526;2023-02-15T09:08:50;17.30;64.20
33865;DHT22;20159;51.072;13.526;2023-02-15T09:11:23;17.40;63.40
33865;DHT22;20159;51.072;13.526;2023-02-15T09:13:53;17.40;60.50
33865;DHT22;20159;51.072;13.526;2023-02-15T09:16:20;17.50;63.50
33865;DHT22;20159;51.072;13.526;2023-02-15T09:18:46;17.60;65.00
33865;DHT22;20159;51.072;13.526;2023-02-15T09:21:15;17.70;64.40
33865;DHT22;20159;51.072;13.526;2023-02-15T09:23:42;17.90;61.60
33865;DHT22;20159;51.072;13.526;2023-02-15T09:26:16;18.00;61.90
33865;DHT22;20159;51.072;13.526;2023-02-15T09:28:42;18.10;58.80
33865;DHT22;20159;51.072;13.526;2023-02-15T09:31:16;18.10;59.90
33865;DHT22;20159;51.072;13.526;2023-02-15T09:33:43;18.20;57.80
33865;DHT22;20159;51.072;13.526;2023-02-15T09:36:18;18.20;57.70
33865;DHT22;20159;51.072;13.526;2023-02-15T09:38:45;18.20;56.10
33865;DHT22;20159;51.072;13.526;2023-02-15T09:41:48;18.20;58.20
33865;DHT22;20159;51.072;13.526;2023-02-15T09:45:15;18.30;54.90
33865;DHT22;20159;51.072;13.526;2023-02-15T09:50:32;18.40;55.70
33865;DHT22;20159;51.072;13.526;2023-02-15T09:53:29;18.40;57.20
33865;DHT22;20159;51.072;13.526;2023-02-15T09:56:02;18.60;59.70
33865;DHT22;20159;51.072;13.526;2023-02-15T09:58:58;18.70;58.40
33865;DHT22;20159;51.072;13.526;2023-02-15T10:01:58;18.80;54.20
33865;DHT22;20159;51.072;13.526;2023-02-15T10:10:39;18.40;54.70
33865;DHT22;20159;51.072;13.526;2023-02-15T10:13:27;18.30;54.30
33865;DHT22;20159;51.072;13.526;2023-02-15T10:18:58;18.30;52.90
33865;DHT22;20159;51.072;13.526;2023-02-15T10:24:39;18.30;54.90
33865;DHT22;20159;51.072;13.526;2023-02-15T10:27:19;18.30;53.50
33865;DHT22;20159;51.072;13.526;2023-02-15T10:29:57;18.30;53.90
33865;DHT22;20159;51.072;13.526;2023-02-15T10:32:28;18.30;54.40
33865;DHT22;20159;51.072;13.526;2023-02-15T10:35:01;18.30;54.40
33865;DHT22;20159;51.072;13.526;2023-02-15T10:43:09;17.80;53.20
33865;DHT22;20159;51.072;13.526;2023-02-15T10:45:58;17.50;54.20
33865;DHT22;20159;51.072;13.526;2023-02-15T10:48:58;17.30;55.00
33865;DHT22;20159;51.072;13.526;2023-02-15T10:54:31;16.80;54.20
33865;DHT22;20159;51.072;13.526;2023-02-15T10:57:10;16.70;53.70
33865;DHT22;20159;51.072;13.526;2023-02-15T11:06:04;16.20;55.40
33865;DHT22;20159;51.072;13.526;2023-02-15T11:08:34;16.10;55.40
33865;DHT22;20159;51.072;13.526;2023-02-15T11:11:05;16.10;56.00
33865;DHT22;20159;51.072;13.526;2023-02-15T11:13:36;16.10;57.10
33865;DHT22;20159;51.072;13.526;2023-02-15T11:16:16;16.20;58.10
33865;DHT22;20159;51.072;13.526;2023-02-15T11:18:54;16.30;58.80
33865;DHT22;20159;51.072;13.526;2023-02-15T11:21:37;16.40;58.20
33865;DHT22;20159;51.072;13.526;2023-02-15T11:24:10;16.50;57.70
33865;DHT22;20159;51.072;13.526;2023-02-15T11:26:54;16.50;57.00
33865;DHT22;20159;51.072;13.526;2023-02-15T11:32:27;16.50;57.40
33865;DHT22;20159;51.072;13.526;2023-02-15T11:35:03;16.40;56.30
33865;DHT22;20159;51.072;13.526;2023-02-15T11:40:33;16.20;57.90
33865;DHT22;20159;51.072;13.526;2023-02-15T11:43:13;16.20;58.50
33865;DHT22;20159;51.072;13.526;2023-02-15T11:45:42;16.20;59.30
33865;DHT22;20159;51.072;13.526;2023-02-15T11:48:11;16.20;59.40
33865;DHT22;20159;51.072;13.526;2023-02-15T11:50:38;16.30;57.60
33865;DHT22;20159;51.072;13.526;2023-02-15T11:53:10;16.30;57.50
33865;DHT22;20159;51.072;13.526;2023-02-15T11:55:37;16.40;58.20
33865;DHT22;20159;51.072;13.526;2023-02-15T12:00:49;16.80;58.00
33865;DHT22;20159;51.072;13.526;2023-02-15T12:03:28;16.90;59.10
33865;DHT22;20159;51.072;13.526;2023-02-15T12:06:02;17.20;58.80
33865;DHT22;20159;51.072;13.526;2023-02-15T12:08:40;17.40;58.20
33865;DHT22;20159;51.072;13.526;2023-02-15T12:11:10;17.60;56.30
33865;DHT22;20159;51.072;13.526;2023-02-15T12:14:00;17.80;57.00
33865;DHT22;20159;51.072;13.526;2023-02-15T12:16:28;18.00;56.10
33865;DHT22;20159;51.072;13.526;2023-02-15T12:18:57;18.10;56.50
33865;DHT22;20159;51.072;13.526;2023-02-15T12:21:33;18.10;55.90
33865;DHT22;20159;51.072;13.526;2023-02-15T12:24:23;18.10;55.40
33865;DHT22;20159;51.072;13.526;2023-02-15T12:29:28;18.10;55.20
33865;DHT22;20159;51.072;13.526;2023-02-15T12:31:54;18.10;56.00
33865;DHT22;20159;51.072;13.526;2023-02-15T12:34:37;18.20;55.80
33865;DHT22;20159;51.072;13.526;2023-02-15T12:37:15;18.30;55.60
33865;DHT22;20159;51.072;13.526;2023-02-15T12:39:51;18.30;55.70
33865;DHT22;20159;51.072;13.526;2023-02-15T12:42:17;18.40;54.90
33865;DHT22;20159;51.072;13.526;2023-02-15T12:45:02;18.30;55.40
33865;DHT22;20159;51.072;13.526;2023-02-15T12:47:30;18.20;54.40
33865;DHT22;20159;51.072;13.526;2023-02-15T12:52:30;18.00;54.50
33865;DHT22;20159;51.072;13.526;2023-02-15T12:55:19;17.90;55.20
33865;DHT22;20159;51.072;13.526;2023-02-15T12:57:45;17.80;54.40
33865;DHT22;20159;51.072;13.526;2023-02-15T13:02:47;17.50;54.10
33865;DHT22;20159;51.072;13.526;2023-02-15T13:05:38;17.40;54.70
33865;DHT22;20159;51.072;13.526;2023-02-15T13:08:30;17.30;55.20
33865;DHT22;20159;51.072;13.526;2023-02-15T13:11:10;17.30;55.40
33865;DHT22;20159;51.072;13.526;2023-02-15T13:13:51;17.30;56.00
33865;DHT22;20159;51.072;13.526;2023-02-15T13:16:24;17.30;56.20
33865;DHT22;20159;51.072;13.526;2023-02-15T13:18:54;17.30;56.20
33865;DHT22;20159;51.072;13.526;2023-02-15T13:21:23;17.40;56.90
33865;DHT22;20159;51.072;13.526;2023-02-15T13:24:02;17.50;57.00
33865;DHT22;20159;51.072;13.526;2023-02-15T13:26:31;17.60;57.20
33865;DHT22;20159;51.072;13.526;2023-02-15T13:29:01;17.70;56.40
33865;DHT22;20159;51.072;13.526;2023-02-15T13:31:31;17.80;56.40
33865;DHT22;20159;51.072;13.526;2023-02-15T13:34:09;17.90;56.40
33865;DHT22;20159;51.072;13.526;2023-02-15T13:39:25;18.10;54.70
33865;DHT22;20159;51.072;13.526;2023-02-15T13:42:13;16.30;53.70
33865;DHT22;20159;51.072;13.526;2023-02-15T13:47:25;18.30;54.10
33865;DHT22;20159;51.072;13.526;2023-02-15T13:50:23;18.30;54.70
33865;DHT22;20159;51.072;13.526;2023-02-15T13:56:02;18.40;53.40
33865;DHT22;20159;51.072;13.526;2023-02-15T13:58:52;18.40;52.00
33865;DHT22;20159;51.072;13.526;2023-02-15T14:01:34;18.30;52.20
33865;DHT22;20159;51.072;13.526;2023-02-15T14:07:29;18.20;53.10
33865;DHT22;20159;51.072;13.526;2023-02-15T14:10:34;18.10;52.80
33865;DHT22;20159;51.072;13.526;2023-02-15T14:16:14;17.80;51.80
33865;DHT22;20159;51.072;13.526;2023-02-15T14:18:51;17.60;51.80
33865;DHT22;20159;51.072;13.526;2023-02-15T14:24:20;17.20;52.10
33865;DHT22;20159;51.072;13.526;2023-02-15T14:27:06;17.00;52.00
33865;DHT22;20159;51.072;13.526;2023-02-15T14:29:57;16.70;52.90
33865;DHT22;20159;51.072;13.526;2023-02-15T14:32:35;16.50;53.60
33865;DHT22;20159;51.072;13.526;2023-02-15T14:35:12;16.20;53.20
33865;DHT22;20159;51.072;13.526;2023-02-15T14:43:37;15.60;54.80
33865;DHT22;20159;51.072;13.526;2023-02-15T14:46:27;15.40;55.00
33865;DHT22;20159;51.072;13.526;2023-02-15T14:49:10;15.20;55.90
33865;DHT22;20159;51.072;13.526;2023-02-15T14:56:44;14.90;56.30
33865;DHT22;20159;51.072;13.526;2023-02-15T14:59:20;14.80;56.40
33865;DHT22;20159;51.072;13.526;2023-02-15T15:01:56;14.70;56.50
33865;DHT22;20159;51.072;13.526;2023-02-15T15:07:16;14.60;57.10
33865;DHT22;20159;51.072;13.526;2023-02-15T15:09:45;14.50;57.30
33865;DHT22;20159;51.072;13.526;2023-02-15T15:14:47;14.30;57.90
33865;DHT22;20159;51.072;13.526;2023-02-15T15:20:05;14.00;59.10
33865;DHT22;20159;51.072;13.526;2023-02-15T15:22:39;13.90;58.70
33865;DHT22;20159;51.072;13.526;2023-02-15T15:31:35;13.30;59.00
33865;DHT22;20159;51.072;13.526;2023-02-15T15:34:38;13.10;58.80
33865;DHT22;20159;51.072;13.526;2023-02-15T15:37:23;12.90;59.30
33865;DHT22;20159;51.072;13.526;2023-02-15T15:49:01;12.10;61.80
33865;DHT22;20159;51.072;13.526;2023-02-15T15:51:32;11.90;62.20
33865;DHT22;20159;51.072;13.526;2023-02-15T15:54:00;11.80;62.40
33865;DHT22;20159;51.072;13.526;2023-02-15T15:56:31;11.50;62.80
33865;DHT22;20159;51.072;13.526;2023-02-15T15:59:01;11.40;63.00
33865;DHT22;20159;51.072;13.526;2023-02-15T16:01:30;11.20;63.40
33865;DHT22;20159;51.072;13.526;2023-02-15T16:03:58;11.00;63.70
33865;DHT22;20159;51.072;13.526;2023-02-15T16:06:29;10.80;63.80
33865;DHT22;20159;51.072;13.526;2023-02-15T16:08:55;10.60;64.10
33865;DHT22;20159;51.072;13.526;2023-02-15T16:11:24;10.50;64.30
33865;DHT22;20159;51.072;13.526;2023-02-15T16:13:50;10.30;64.60
33865;DHT22;20159;51.072;13.526;2023-02-15T16:16:28;10.20;65.30
33865;DHT22;20159;51.072;13.526;2023-02-15T16:18:55;10.00;66.10
33865;DHT22;20159;51.072;13.526;2023-02-15T16:21:29;9.90;65.90
33865;DHT22;20159;51.072;13.526;2023-02-15T16:29:42;9.30;67.50
33865;DHT22;20159;51.072;13.526;2023-02-15T16:32:23;9.10;67.10
33865;DHT22;20159;51.072;13.526;2023-02-15T16:34:55;8.90;68.40
33865;DHT22;20159;51.072;13.526;2023-02-15T16:37:23;8.80;68.60
33865;DHT22;20159;51.072;13.526;2023-02-15T16:39:51;8.60;68.80
33865;DHT22;20159;51.072;13.526;2023-02-15T16:42:17;8.40;69.60
33865;DHT22;20159;51.072;13.526;2023-02-15T16:44:45;8.30;69.60
33865;DHT22;20159;51.072;13.526;2023-02-15T16:47:21;8.20;70.30
33865;DHT22;20159;51.072;13.526;2023-02-15T16:49:49;8.00;70.90
33865;DHT22;20159;51.072;13.526;2023-02-15T16:52:21;8.00;70.90
33865;DHT22;20159;51.072;13.526;2023-02-15T16:54:55;7.80;71.60
33865;DHT22;20159;51.072;13.526;2023-02-15T16:57:24;7.60;71.80
33865;DHT22;20159;51.072;13.526;2023-02-15T16:59:52;7.60;72.00
33865;DHT22;20159;51.072;13.526;2023-02-15T17:02:24;7.40;72.40
33865;DHT22;20159;51.072;13.526;2023-02-15T17:07:40;7.20;73.80
33865;DHT22;20159;51.072;13.526;2023-02-15T17:10:27;7.10;73.40
33865;DHT22;20159;51.072;13.526;2023-02-15T17:12:54;7.00;74.50
33865;DHT22;20159;51.072;13.526;2023-02-15T17:18:20;6.70;74.80
33865;DHT22;20159;51.072;13.526;2023-02-15T17:20:48;6.60;75.60
33865;DHT22;20159;51.072;13.526;2023-02-15T17:23:25;6.50;75.00
33865;DHT22;20159;51.072;13.526;2023-02-15T17:25:52;6.40;76.00
33865;DHT22;20159;51.072;13.526;2023-02-15T17:28:21;6.30;75.70
33865;DHT22;20159;51.072;13.526;2023-02-15T17:30:49;6.20;76.30
33865;DHT22;20159;51.072;13.526;2023-02-15T17:33:25;6.10;76.70
33865;DHT22;20159;51.072;13.526;2023-02-15T17:36:14;6.10;77.50
33865;DHT22;20159;51.072;13.526;2023-02-15T17:39:05;5.90;78.00
33865;DHT22;20159;51.072;13.526;2023-02-15T17:41:33;5.90;78.00
33865;DHT22;20159;51.072;13.526;2023-02-15T17:44:00;5.80;77.20
33865;DHT22;20159;51.072;13.526;2023-02-15T17:46:29;5.70;77.20
33865;DHT22;20159;51.072;13.526;2023-02-15T17:48:58;7.50;78.60
33865;DHT22;20159;51.072;13.526;2023-02-15T17:51:24;5.60;77.70
33865;DHT22;20159;51.072;13.526;2023-02-15T17:53:49;5.50;78.00
33865;DHT22;20159;51.072;13.526;2023-02-15T17:56:36;5.40;78.60
33865;DHT22;20159;51.072;13.526;2023-02-15T17:59:03;5.50;79.10
33865;DHT22;20159;51.072;13.526;2023-02-15T18:01:33;5.20;79.40
33865;DHT22;20159;51.072;13.526;2023-02-15T18:04:19;5.20;80.00